Time;durP1;ratioP1;P1;durP2;ratioP2;P2;SDS_P1;SDS_P2;PMS_P1;PMS_P2;Temp;Humidity;BMP_temperature;BMP_pressure;BME280_temperature;BME280_humidity;BME280_pressure;Samples;Min_cycle;Max_cycle;Signal;HPM_P1;HPM_P2
2023/06/04 00:00:20;;;;;;;10.52;3.90;;;;;;;;;;5048021;28;20061;-92
2023/06/04 00:02:49;;;;;;;11.73;4.28;;;;;;;;;;5046227;28;20049;-92
2023/06/04 00:05:15;;;;;;;9.15;3.80;;;;;;;;;;5046868;28;20466;-93
2023/06/04 00:07:44;;;;;;;12.05;4.70;;;;;;;;;;5046057;28;20637;-92
2023/06/04 00:10:10;;;;;;;9.05;4.18;;;;;;;;;;5048200;28;20037;-91
2023/06/04 00:12:39;;;;;;;12.15;4.25;;;;;;;;;;5030405;28;20041;-92
2023/06/04 00:15:05;;;;;;;11.32;4.45;;;;;;;;;;5044825;28;20045;-92
2023/06/04 00:17:34;;;;;;;12.30;4.57;;;;;;;;;;5033435;28;20049;-93
2023/06/04 00:20:00;;;;;;;10.02;4.80;;;;;;;;;;5018172;28;20057;-92
2023/06/04 00:22:28;;;;;;;11.57;4.90;;;;;;;;;;5048003;28;20045;-91
2023/06/04 00:24:59;;;;;;;10.45;5.07;;;;;;;;;;5048072;28;20045;-92
2023/06/04 00:27:30;;;;;;;11.43;4.75;;;;;;;;;;5047653;28;20046;-93
2023/06/04 00:29:59;;;;;;;12.32;4.82;;;;;;;;;;5047172;28;20048;-93
2023/06/04 00:32:27;;;;;;;16.27;5.85;;;;;;;;;;5046871;28;20061;-93
2023/06/04 00:35:09;;;;;;;;;;;;;;;;;;;;;
2023/06/04 00:37:45;;;;;;;14.48;5.30;;;;;;;;;;5043341;28;20053;-93
2023/06/04 00:40:12;;;;;;;11.60;5.10;;;;;;;;;;5032022;28;20050;-92
2023/06/04 00:42:38;;;;;;;12.45;5.28;;;;;;;;;;5030571;28;20560;-93
2023/06/04 00:45:07;;;;;;;10.85;5.20;;;;;;;;;;5051309;28;20029;-90
2023/06/04 00:47:33;;;;;;;10.40;4.70;;;;;;;;;;5057469;28;20036;-91
2023/06/04 00:50:02;;;;;;;11.57;5.32;;;;;;;;;;5057006;28;20046;-91
2023/06/04 00:52:37;;;;;;;13.10;5.25;;;;;;;;;;5051349;28;20051;-92
2023/06/04 00:55:06;;;;;;;13.18;5.13;;;;;;;;;;5052317;28;20068;-93
2023/06/04 01:00:23;;;;;;;11.63;4.95;;;;;;;;;;5051828;28;20083;-92
2023/06/04 01:02:55;;;;;;;12.90;5.07;;;;;;;;;;5050940;28;20042;-93
2023/06/04 01:05:35;;;;;;;15.27;5.25;;;;;;;;;;5050297;28;20103;-93
2023/06/04 01:08:09;;;;;;;15.77;5.65;;;;;;;;;;5050852;28;20046;-93
2023/06/04 01:10:43;;;;;;;13.68;5.70;;;;;;;;;;5032201;28;20372;-92
2023/06/04 01:13:12;;;;;;;17.25;5.55;;;;;;;;;;5032137;28;20050;-93
2023/06/04 01:15:41;;;;;;;14.18;5.22;;;;;;;;;;5045497;28;20392;-93
2023/06/04 01:18:20;;;;;;;;;;;;;;;;;;;;;
2023/06/04 01:20:51;;;;;;;15.82;5.45;;;;;;;;;;5047473;28;20045;-92
2023/06/04 01:23:34;;;;;;;13.23;5.20;;;;;;;;;;5049841;28;20104;-92
2023/06/04 01:26:09;;;;;;;12.32;5.45;;;;;;;;;;5033166;28;20052;-93
2023/06/04 01:28:38;;;;;;;15.35;5.85;;;;;;;;;;5047423;28;20045;-93
2023/06/04 01:31:08;;;;;;;14.02;5.70;;;;;;;;;;5049701;28;20072;-93
2023/06/04 01:33:40;;;;;;;14.52;6.07;;;;;;;;;;5033548;28;20140;-92
2023/06/04 01:36:10;;;;;;;19.13;6.90;;;;;;;;;;5052848;28;20049;-92
2023/06/04 01:38:36;;;;;;;14.75;6.13;;;;;;;;;;5041597;28;20022;-92
2023/06/04 01:41:02;;;;;;;16.60;6.13;;;;;;;;;;5050231;28;20045;-92
2023/06/04 01:43:31;;;;;;;14.07;6.18;;;;;;;;;;5052020;28;20073;-92
2023/06/04 01:45:57;;;;;;;11.50;5.70;;;;;;;;;;5050883;28;20049;-92
2023/06/04 01:48:23;;;;;;;15.30;6.28;;;;;;;;;;5050278;28;20059;-92
2023/06/04 01:50:50;;;;;;;11.27;5.80;;;;;;;;;;5051394;28;20041;-93
2023/06/04 01:53:16;;;;;;;16.10;5.78;;;;;;;;;;5051188;28;20088;-93
2023/06/04 01:55:49;;;;;;;19.23;6.43;;;;;;;;;;5050947;28;20049;-93
2023/06/04 01:58:37;;;;;;;16.90;6.07;;;;;;;;;;5054607;28;20041;-91
2023/06/04 02:01:16;;;;;;;13.13;5.90;;;;;;;;;;5048491;28;20045;-89
2023/06/04 02:03:52;;;;;;;15.38;6.30;;;;;;;;;;5046708;28;20025;-88
2023/06/04 02:06:18;;;;;;;12.63;6.20;;;;;;;;;;5059739;28;20049;-92
2023/06/04 02:08:44;;;;;;;15.77;6.70;;;;;;;;;;5033365;28;20045;-92
2023/06/04 02:11:10;;;;;;;12.63;6.05;;;;;;;;;;5049034;28;20053;-92
2023/06/04 02:13:57;;;;;;;11.82;5.88;;;;;;;;;;5048998;28;20105;-92
2023/06/04 02:16:32;;;;;;;15.05;6.50;;;;;;;;;;5050645;28;20045;-93
2023/06/04 02:19:18;;;;;;;15.48;6.15;;;;;;;;;;5048820;28;20499;-93
2023/06/04 02:21:52;;;;;;;14.30;6.13;;;;;;;;;;5049052;28;20477;-93
2023/06/04 02:24:23;;;;;;;14.48;6.88;;;;;;;;;;5032597;28;20080;-93
2023/06/04 02:26:49;;;;;;;;;;;;;;;;;;5050182;28;20045;-92
2023/06/04 02:29:18;;;;;;;17.20;6.75;;;;;;;;;;5049147;28;19984;-93
2023/06/04 02:31:44;;;;;;;15.93;6.45;;;;;;;;;;5048873;28;20057;-92
2023/06/04 02:34:20;;;;;;;;;;;;;;;;;;;;;
2023/06/04 02:36:50;;;;;;;16.98;6.43;;;;;;;;;;5020186;28;20053;-92
2023/06/04 02:39:22;;;;;;;17.15;6.90;;;;;;;;;;5025119;28;20085;-92
2023/06/04 02:41:58;;;;;;;15.15;6.50;;;;;;;;;;5036930;28;20064;-93
2023/06/04 02:44:31;;;;;;;16.33;6.47;;;;;;;;;;5049109;28;20041;-92
2023/06/04 02:47:18;;;;;;;16.92;6.90;;;;;;;;;;5038189;28;20042;-92
2023/06/04 02:49:48;;;;;;;20.35;8.00;;;;;;;;;;5029985;28;20102;-91
2023/06/04 02:52:14;;;;;;;20.23;8.20;;;;;;;;;;5029168;28;20491;-91
2023/06/04 02:54:40;;;;;;;13.63;7.45;;;;;;;;;;5048879;28;20046;-91
2023/06/04 02:57:07;;;;;;;20.50;7.65;;;;;;;;;;5049912;28;20041;-91
2023/06/04 02:59:33;;;;;;;16.70;7.80;;;;;;;;;;5024821;28;20046;-92
2023/06/04 03:01:59;;;;;;;17.33;8.27;;;;;;;;;;5046876;28;20124;-92
2023/06/04 03:04:33;;;;;;;20.40;8.23;;;;;;;;;;5011396;28;20416;-92
2023/06/04 03:07:00;;;;;;;19.40;8.82;;;;;;;;;;5029011;28;20133;-91
2023/06/04 03:09:26;;;;;;;15.32;8.02;;;;;;;;;;5018002;28;20049;-92
2023/06/04 03:11:54;;;;;;;20.48;8.57;;;;;;;;;;5027914;28;20050;-92
2023/06/04 03:14:21;;;;;;;19.58;8.68;;;;;;;;;;5027094;28;20053;-91
2023/06/04 03:16:47;;;;;;;17.15;7.80;;;;;;;;;;5032548;28;20041;-89
2023/06/04 03:19:13;;;;;;;21.50;9.00;;;;;;;;;;5037346;28;20025;-89
2023/06/04 03:21:39;;;;;;;21.80;7.90;;;;;;;;;;5016135;28;20046;-92
2023/06/04 03:24:08;;;;;;;17.13;7.88;;;;;;;;;;5028304;28;20042;-92
2023/06/04 03:26:37;;;;;;;18.77;7.75;;;;;;;;;;5046345;28;20108;-93
2023/06/04 03:29:03;;;;;;;14.90;7.97;;;;;;;;;;5046265;28;20052;-92
2023/06/04 03:31:32;;;;;;;20.17;8.77;;;;;;;;;;5043782;28;20048;-92
2023/06/04 03:33:58;;;;;;;18.25;7.68;;;;;;;;;;5031692;28;20407;-91
2023/06/04 03:36:31;;;;;;;16.40;8.15;;;;;;;;;;5046959;28;20055;-93
2023/06/04 03:38:59;;;;;;;16.65;7.50;;;;;;;;;;5046101;28;20037;-93
2023/06/04 03:41:26;;;;;;;18.45;7.93;;;;;;;;;;5044546;28;20045;-93
2023/06/04 03:43:52;;;;;;;20.73;7.85;;;;;;;;;;5034013;28;20042;-92
2023/06/04 03:46:18;;;;;;;16.60;8.27;;;;;;;;;;5045513;28;20072;-91
2023/06/04 03:48:44;;;;;;;16.17;7.40;;;;;;;;;;5050502;28;20063;-91
2023/06/04 03:51:14;;;;;;;17.95;7.35;;;;;;;;;;5050708;28;20017;-91
2023/06/04 03:53:40;;;;;;;16.90;7.93;;;;;;;;;;5029202;28;20079;-92
2023/06/04 03:56:08;;;;;;;15.80;7.72;;;;;;;;;;5044884;28;20073;-92
2023/06/04 03:58:36;;;;;;;17.77;7.90;;;;;;;;;;5043059;28;20451;-92
2023/06/04 04:01:04;;;;;;;15.63;7.57;;;;;;;;;;5045719;28;20048;-90
2023/06/04 04:03:30;;;;;;;17.13;8.88;;;;;;;;;;5045053;28;20045;-91
2023/06/04 04:06:02;;;;;;;16.83;8.23;;;;;;;;;;5045843;28;20496;-92
2023/06/04 04:08:31;;;;;;;17.45;8.52;;;;;;;;;;5040293;28;20050;-92
2023/06/04 04:10:58;;;;;;;19.92;9.30;;;;;;;;;;5040055;28;20038;-91
2023/06/04 04:13:24;;;;;;;20.08;8.75;;;;;;;;;;5044852;28;20050;-90
2023/06/04 04:15:53;;;;;;;17.92;9.40;;;;;;;;;;5030837;28;20097;-91
2023/06/04 04:18:22;;;;;;;19.90;9.00;;;;;;;;;;5043706;28;20034;-91
2023/06/04 04:21:11;;;;;;;17.00;8.05;;;;;;;;;;5023151;28;20057;-91
2023/06/04 04:26:27;;;;;;;15.85;7.72;;;;;;;;;;5034368;28;20053;-91
2023/06/04 04:28:57;;;;;;;15.43;7.65;;;;;;;;;;5047173;28;20056;-92
2023/06/04 04:31:25;;;;;;;14.57;6.60;;;;;;;;;;5041935;28;20101;-91
2023/06/04 04:33:51;;;;;;;16.88;6.75;;;;;;;;;;5051815;28;20033;-88
2023/06/04 04:36:18;;;;;;;14.50;7.38;;;;;;;;;;5054946;28;20021;-88
2023/06/04 04:38:53;;;;;;;16.70;7.32;;;;;;;;;;5047268;28;20048;-90
2023/06/04 04:41:22;;;;;;;16.20;7.82;;;;;;;;;;5034306;28;20046;-92
2023/06/04 04:43:49;;;;;;;14.15;8.20;;;;;;;;;;5026920;28;20053;-91
2023/06/04 04:46:19;;;;;;;14.15;8.27;;;;;;;;;;5032942;28;20071;-91
2023/06/04 04:48:48;;;;;;;15.75;7.95;;;;;;;;;;5045933;28;20046;-91
2023/06/04 04:51:15;;;;;;;15.93;8.48;;;;;;;;;;5045320;28;20045;-91
2023/06/04 04:53:43;;;;;;;19.60;9.25;;;;;;;;;;5046948;28;20042;-92
2023/06/04 04:56:09;;;;;;;14.85;8.88;;;;;;;;;;5045673;28;20137;-92
2023/06/04 04:58:35;;;;;;;19.02;9.93;;;;;;;;;;5046336;28;20570;-92
2023/06/04 05:01:01;;;;;;;17.08;10.07;;;;;;;;;;5043843;28;20049;-92
2023/06/04 05:03:27;;;;;;;18.77;10.18;;;;;;;;;;5028637;28;20056;-91
2023/06/04 05:05:54;;;;;;;15.55;10.10;;;;;;;;;;5045591;28;20069;-91
2023/06/04 05:08:22;;;;;;;17.15;9.68;;;;;;;;;;5032419;28;20050;-91
2023/06/04 05:10:51;;;;;;;18.92;10.27;;;;;;;;;;5027588;28;20085;-91
2023/06/04 05:13:20;;;;;;;20.23;11.10;;;;;;;;;;5035177;28;20064;-91
2023/06/04 05:15:56;;;;;;;14.50;10.10;;;;;;;;;;5027754;28;20057;-91
2023/06/04 05:18:44;;;;;;;15.98;11.55;;;;;;;;;;5045799;28;20137;-92
2023/06/04 05:21:13;;;;;;;19.80;11.00;;;;;;;;;;5046106;28;20045;-91
2023/06/04 05:23:42;;;;;;;21.73;11.80;;;;;;;;;;5034942;28;20045;-91
2023/06/04 05:26:10;;;;;;;18.77;11.38;;;;;;;;;;5031428;28;20105;-89
2023/06/04 05:28:39;;;;;;;22.00;11.75;;;;;;;;;;5050429;28;20139;-90
2023/06/04 05:31:05;;;;;;;14.27;10.25;;;;;;;;;;5047611;28;20041;-90
2023/06/04 05:33:41;;;;;;;18.98;10.02;;;;;;;;;;5047610;28;20050;-91
2023/06/04 05:36:09;;;;;;;20.95;9.82;;;;;;;;;;5030907;28;20549;-91
2023/06/04 05:39:07;;;;;;;;;;;;;;;;;;;;;
2023/06/04 05:41:38;;;;;;;14.80;7.90;;;;;;;;;;5044102;28;20042;-91
2023/06/04 05:44:09;;;;;;;18.27;7.93;;;;;;;;;;5033189;28;20046;-91
2023/06/04 05:46:37;;;;;;;13.73;6.63;;;;;;;;;;5038995;28;20375;-92
2023/06/04 05:52:02;;;;;;;15.43;6.07;;;;;;;;;;5059242;28;20093;-91
2023/06/04 05:54:31;;;;;;;15.02;5.85;;;;;;;;;;5054052;28;20049;-92
2023/06/04 05:57:21;;;;;;;13.02;5.32;;;;;;;;;;5034795;28;20141;-92
2023/06/04 05:59:49;;;;;;;11.93;5.05;;;;;;;;;;5045066;28;20041;-93
2023/06/04 06:02:17;;;;;;;12.45;5.25;;;;;;;;;;5054439;28;20045;-92
2023/06/04 06:04:46;;;;;;;12.82;4.97;;;;;;;;;;5045659;28;20124;-91
2023/06/04 06:07:20;;;;;;;11.20;4.88;;;;;;;;;;5036843;28;20041;-89
2023/06/04 06:09:46;;;;;;;12.32;5.32;;;;;;;;;;5032494;28;20076;-90
2023/06/04 06:12:12;;;;;;;12.00;4.82;;;;;;;;;;5045828;28;20044;-90
2023/06/04 06:17:25;;;;;;;10.27;4.18;;;;;;;;;;5032869;28;20049;-90
2023/06/04 06:20:00;;;;;;;12.48;4.47;;;;;;;;;;5035534;28;20053;-89
2023/06/04 06:22:27;;;;;;;10.85;4.18;;;;;;;;;;5012439;28;20041;-90
2023/06/04 06:24:58;;;;;;;14.38;4.15;;;;;;;;;;5038655;28;20056;-90
2023/06/04 06:27:30;;;;;;;10.40;4.05;;;;;;;;;;5030728;28;20037;-90
2023/06/04 06:29:58;;;;;;;11.75;4.30;;;;;;;;;;5045012;28;20125;-89
2023/06/04 06:32:27;;;;;;;11.88;4.45;;;;;;;;;;5038200;28;20050;-89
2023/06/04 06:35:03;;;;;;;11.25;4.10;;;;;;;;;;5047576;28;20484;-89
2023/06/04 06:37:29;;;;;;;10.63;4.30;;;;;;;;;;5048462;28;20053;-89
2023/06/04 06:40:00;;;;;;;12.88;3.85;;;;;;;;;;5024056;28;20049;-91
2023/06/04 06:42:39;;;;;;;;;;;;;;;;;;;;;
2023/06/04 06:45:09;;;;;;;12.77;4.05;;;;;;;;;;5046067;28;20060;-91
2023/06/04 06:47:35;;;;;;;15.40;4.10;;;;;;;;;;5030272;28;20026;-89
2023/06/04 06:50:05;;;;;;;10.40;3.53;;;;;;;;;;5046813;28;20038;-89
2023/06/04 06:52:31;;;;;;;10.07;3.75;;;;;;;;;;5031856;28;20053;-91
2023/06/04 06:55:00;;;;;;;10.02;3.40;;;;;;;;;;5038417;28;20053;-91
2023/06/04 06:57:30;;;;;;;10.32;4.00;;;;;;;;;;5030294;28;20145;-92
2023/06/04 06:59:58;;;;;;;10.90;3.40;;;;;;;;;;5043968;28;20083;-90
2023/06/04 07:02:29;;;;;;;13.38;3.83;;;;;;;;;;5028644;28;20046;-91
2023/06/04 07:05:00;;;;;;;10.93;3.50;;;;;;;;;;5024435;28;20097;-90
2023/06/04 07:10:18;;;;;;;12.88;3.25;;;;;;;;;;5039837;28;20064;-90
2023/06/04 07:12:47;;;;;;;13.40;3.00;;;;;;;;;;5029291;28;20105;-90
2023/06/04 07:15:19;;;;;;;12.70;3.72;;;;;;;;;;5047886;28;20053;-90
2023/06/04 07:17:54;;;;;;;11.25;3.47;;;;;;;;;;5048023;28;20049;-91
2023/06/04 07:20:20;;;;;;;14.27;3.17;;;;;;;;;;5046105;28;20069;-90
2023/06/04 07:22:57;;;;;;;10.38;2.90;;;;;;;;;;5046284;28;20041;-91
2023/06/04 07:25:26;;;;;;;8.65;2.50;;;;;;;;;;5046139;28;20132;-91
2023/06/04 07:28:09;;;;;;;8.27;2.70;;;;;;;;;;5034370;28;20049;-91
2023/06/04 07:30:37;;;;;;;8.45;2.63;;;;;;;;;;5026527;28;20097;-90
2023/06/04 07:33:06;;;;;;;8.57;2.35;;;;;;;;;;5027407;28;20181;-89
2023/06/04 07:35:49;;;;;;;9.93;2.72;;;;;;;;;;5025939;28;20072;-90
2023/06/04 07:38:18;;;;;;;11.07;2.88;;;;;;;;;;5029504;28;20041;-87
2023/06/04 07:40:45;;;;;;;9.60;2.90;;;;;;;;;;5029279;28;20042;-90
2023/06/04 07:43:12;;;;;;;10.18;2.80;;;;;;;;;;5046015;28;20053;-89
2023/06/04 07:45:38;;;;;;;8.20;2.17;;;;;;;;;;5029994;28;20071;-89
2023/06/04 07:48:04;;;;;;;8.52;2.45;;;;;;;;;;4997234;28;20045;-90
2023/06/04 07:50:30;;;;;;;8.75;2.45;;;;;;;;;;5021711;28;20049;-91
2023/06/04 07:53:00;;;;;;;8.13;2.40;;;;;;;;;;4997530;28;20101;-92
2023/06/04 07:55:26;;;;;;;7.43;2.15;;;;;;;;;;5027148;28;20077;-91
2023/06/04 07:57:52;;;;;;;7.88;2.13;;;;;;;;;;5027207;28;20059;-90
2023/06/04 08:00:25;;;;;;;6.93;2.03;;;;;;;;;;5027089;28;20038;-90
2023/06/04 08:02:52;;;;;;;7.40;2.33;;;;;;;;;;5027213;28;20045;-89
2023/06/04 08:05:21;;;;;;;10.13;2.42;;;;;;;;;;5004482;28;20026;-89
2023/06/04 08:07:49;;;;;;;7.95;2.45;;;;;;;;;;5035123;28;20045;-89
2023/06/04 08:10:18;;;;;;;9.15;2.03;;;;;;;;;;5033377;28;20474;-89
2023/06/04 08:12:44;;;;;;;9.27;2.00;;;;;;;;;;5015424;28;20068;-89
2023/06/04 08:15:10;;;;;;;6.70;1.90;;;;;;;;;;5029007;28;20041;-89
2023/06/04 08:17:44;;;;;;;10.05;2.20;;;;;;;;;;5046778;28;20041;-88
2023/06/04 08:20:10;;;;;;;7.65;2.50;;;;;;;;;;5007710;28;20038;-88
2023/06/04 08:22:40;;;;;;;9.05;2.60;;;;;;;;;;5036587;28;20061;-88
2023/06/04 08:25:10;;;;;;;6.47;1.92;;;;;;;;;;5046842;28;20192;-88
2023/06/04 08:27:36;;;;;;;10.43;2.00;;;;;;;;;;5044248;28;20526;-85
2023/06/04 08:30:02;;;;;;;8.10;1.50;;;;;;;;;;5040990;28;20064;-87
2023/06/04 08:32:28;;;;;;;7.43;1.95;;;;;;;;;;5027351;28;20148;-88
2023/06/04 08:34:55;;;;;;;9.05;2.20;;;;;;;;;;5022400;28;20045;-89
2023/06/04 08:37:21;;;;;;;6.88;1.67;;;;;;;;;;5040542;28;20041;-87
2023/06/04 08:39:47;;;;;;;6.75;2.08;;;;;;;;;;5005903;28;20049;-87
2023/06/04 08:42:20;;;;;;;6.18;1.60;;;;;;;;;;5012332;28;20046;-86
2023/06/04 08:44:47;;;;;;;8.40;2.22;;;;;;;;;;5040573;28;20049;-88
2023/06/04 08:47:15;;;;;;;6.90;1.88;;;;;;;;;;5018466;28;20041;-87
2023/06/04 08:49:44;;;;;;;6.18;1.52;;;;;;;;;;5009551;28;20072;-89
2023/06/04 08:52:10;;;;;;;7.32;1.80;;;;;;;;;;5017203;28;20088;-88
2023/06/04 08:54:37;;;;;;;6.38;1.50;;;;;;;;;;5024230;28;20073;-90
2023/06/04 08:57:03;;;;;;;6.50;1.70;;;;;;;;;;5027178;28;20098;-89
2023/06/04 08:59:29;;;;;;;6.70;1.73;;;;;;;;;;5046647;28;20041;-90
2023/06/04 09:01:56;;;;;;;8.32;1.80;;;;;;;;;;5032786;28;20092;-89
2023/06/04 09:04:22;;;;;;;7.30;1.80;;;;;;;;;;5034633;28;20045;-90
2023/06/04 09:06:48;;;;;;;6.45;1.70;;;;;;;;;;5028146;28;20056;-89
2023/06/04 09:09:18;;;;;;;6.30;1.90;;;;;;;;;;5016021;28;20057;-89
2023/06/04 09:11:52;;;;;;;8.15;1.67;;;;;;;;;;5048454;28;20145;-89
2023/06/04 09:14:18;;;;;;;5.63;1.55;;;;;;;;;;5049101;28;20097;-89
2023/06/04 09:16:44;;;;;;;5.63;1.50;;;;;;;;;;5049404;28;20064;-89
2023/06/04 09:19:10;;;;;;;6.30;2.08;;;;;;;;;;5030618;28;20049;-89
2023/06/04 09:21:46;;;;;;;7.72;1.90;;;;;;;;;;5014783;28;20510;-89
2023/06/04 09:24:12;;;;;;;6.03;1.70;;;;;;;;;;5014679;28;20056;-89
2023/06/04 09:26:38;;;;;;;4.90;1.58;;;;;;;;;;5050013;28;20041;-90
2023/06/04 09:29:06;;;;;;;6.70;1.38;;;;;;;;;;5049959;28;20041;-89
2023/06/04 09:31:37;;;;;;;5.53;1.50;;;;;;;;;;5033442;28;20045;-87
2023/06/04 09:34:03;;;;;;;6.50;1.83;;;;;;;;;;5052440;28;20049;-89
2023/06/04 09:36:35;;;;;;;5.32;1.67;;;;;;;;;;5050590;28;20042;-90
2023/06/04 09:39:02;;;;;;;7.13;1.73;;;;;;;;;;5049684;28;20053;-90
2023/06/04 09:41:28;;;;;;;7.20;2.15;;;;;;;;;;5014798;28;20049;-90
2023/06/04 09:44:03;;;;;;;6.60;1.73;;;;;;;;;;5014600;28;20107;-90
2023/06/04 09:46:30;;;;;;;7.72;2.25;;;;;;;;;;5008768;28;20049;-90
2023/06/04 09:49:00;;;;;;;5.28;1.67;;;;;;;;;;5034943;28;20052;-89
2023/06/04 09:51:26;;;;;;;6.40;1.70;;;;;;;;;;5030013;28;20115;-90
2023/06/04 09:53:57;;;;;;;7.03;1.80;;;;;;;;;;5014915;28;20053;-89
2023/06/04 09:56:23;;;;;;;6.53;1.83;;;;;;;;;;5048903;28;20033;-90
2023/06/04 09:58:50;;;;;;;5.18;1.52;;;;;;;;;;5047297;28;20311;-90
2023/06/04 10:01:16;;;;;;;4.80;1.58;;;;;;;;;;5014164;28;20045;-90
2023/06/04 10:03:46;;;;;;;6.57;1.63;;;;;;;;;;5048451;28;20042;-90
2023/06/04 10:06:14;;;;;;;4.90;1.50;;;;;;;;;;5029916;28;20476;-89
2023/06/04 10:08:42;;;;;;;6.18;1.67;;;;;;;;;;5031823;28;20048;-90
2023/06/04 10:11:09;;;;;;;5.43;1.42;;;;;;;;;;5049064;28;20511;-90
2023/06/04 10:13:38;;;;;;;8.30;2.00;;;;;;;;;;5014446;28;20042;-89
2023/06/04 10:16:05;;;;;;;5.90;1.65;;;;;;;;;;5051140;28;20044;-89
2023/06/04 10:18:31;;;;;;;7.57;1.90;;;;;;;;;;5035803;28;20057;-89
2023/06/04 10:20:57;;;;;;;6.68;2.00;;;;;;;;;;5051795;28;20021;-89
2023/06/04 10:23:24;;;;;;;6.97;1.70;;;;;;;;;;5029768;28;20487;-89
2023/06/04 10:25:52;;;;;;;5.72;1.67;;;;;;;;;;5014338;28;20503;-90
2023/06/04 10:28:21;;;;;;;7.32;1.90;;;;;;;;;;5047775;28;20496;-89
2023/06/04 10:30:50;;;;;;;6.68;1.80;;;;;;;;;;5048177;28;20041;-90
2023/06/04 10:33:17;;;;;;;6.28;1.75;;;;;;;;;;5046575;28;20057;-90
2023/06/04 10:35:43;;;;;;;6.22;1.77;;;;;;;;;;5029631;28;20049;-90
2023/06/04 10:38:11;;;;;;;5.13;1.55;;;;;;;;;;5030764;28;20096;-88
2023/06/04 10:40:38;;;;;;;4.82;1.42;;;;;;;;;;5015047;28;20053;-89
2023/06/04 10:43:08;;;;;;;7.40;1.60;;;;;;;;;;5048907;28;20140;-89
2023/06/04 10:45:34;;;;;;;5.97;1.70;;;;;;;;;;5014538;28;20041;-88
2023/06/04 10:48:00;;;;;;;6.72;1.75;;;;;;;;;;5031272;28;20052;-89
2023/06/04 10:50:26;;;;;;;6.88;1.73;;;;;;;;;;5047924;28;20055;-90
2023/06/04 10:52:53;;;;;;;6.82;1.70;;;;;;;;;;5031661;28;20046;-89
2023/06/04 10:55:19;;;;;;;3.90;1.35;;;;;;;;;;5048140;28;20042;-89
2023/06/04 10:57:55;;;;;;;7.45;1.65;;;;;;;;;;5048279;28;20052;-89
2023/06/04 11:00:22;;;;;;;6.47;1.92;;;;;;;;;;5047173;28;20037;-90
2023/06/04 11:02:57;;;;;;;6.63;2.00;;;;;;;;;;5029692;28;20041;-90
2023/06/04 11:05:34;;;;;;;5.40;1.42;;;;;;;;;;5029997;28;20056;-88
2023/06/04 11:08:01;;;;;;;7.13;1.73;;;;;;;;;;5048081;28;20045;-89
2023/06/04 11:10:33;;;;;;;6.40;1.80;;;;;;;;;;5014212;28;20072;-89
2023/06/04 11:12:59;;;;;;;8.88;1.70;;;;;;;;;;5048479;28;20053;-88
2023/06/04 11:15:27;;;;;;;5.28;1.52;;;;;;;;;;5047464;28;20072;-90
2023/06/04 11:17:54;;;;;;;6.13;1.60;;;;;;;;;;5047937;28;20038;-89
2023/06/04 11:20:21;;;;;;;6.97;1.80;;;;;;;;;;5046331;28;20042;-90
2023/06/04 11:22:53;;;;;;;3.55;1.17;;;;;;;;;;5049827;28;20120;-88
2023/06/04 11:25:19;;;;;;;5.53;1.63;;;;;;;;;;5057765;28;20037;-88
2023/06/04 11:27:46;;;;;;;4.60;1.30;;;;;;;;;;5057541;28;20044;-88
2023/06/04 11:30:13;;;;;;;5.05;1.50;;;;;;;;;;5048556;28;20100;-89
2023/06/04 11:32:39;;;;;;;5.25;1.50;;;;;;;;;;5044802;28;20053;-89
2023/06/04 11:35:07;;;;;;;6.05;1.58;;;;;;;;;;5046347;28;20514;-87
2023/06/04 11:37:33;;;;;;;5.22;1.40;;;;;;;;;;5028453;28;20498;-88
2023/06/04 11:40:00;;;;;;;6.07;1.50;;;;;;;;;;5046268;28;20097;-89
2023/06/04 11:42:29;;;;;;;6.82;1.92;;;;;;;;;;5045964;28;20090;-88
2023/06/04 11:44:58;;;;;;;6.72;1.40;;;;;;;;;;5009563;28;20041;-89
2023/06/04 11:47:25;;;;;;;4.85;1.50;;;;;;;;;;5046415;28;20042;-89
2023/06/04 11:49:55;;;;;;;4.65;1.50;;;;;;;;;;5046433;28;20076;-88
2023/06/04 11:52:22;;;;;;;4.85;1.48;;;;;;;;;;5029016;28;20156;-88
2023/06/04 11:54:48;;;;;;;6.15;1.40;;;;;;;;;;5034772;28;20076;-89
2023/06/04 11:57:14;;;;;;;5.30;1.42;;;;;;;;;;5027523;28;20041;-89
2023/06/04 11:59:43;;;;;;;5.10;1.92;;;;;;;;;;5009586;28;20400;-88
2023/06/04 12:02:09;;;;;;;4.25;1.30;;;;;;;;;;4992924;28;20046;-88
2023/06/04 12:04:36;;;;;;;5.00;1.50;;;;;;;;;;5026293;28;20132;-88
2023/06/04 12:07:04;;;;;;;6.28;1.38;;;;;;;;;;5034797;28;20026;-87
2023/06/04 12:09:40;;;;;;;4.88;1.50;;;;;;;;;;5034335;28;20045;-88
2023/06/04 12:12:07;;;;;;;5.40;1.58;;;;;;;;;;5048029;28;20435;-89
2023/06/04 12:14:34;;;;;;;5.25;1.67;;;;;;;;;;5029462;28;20048;-90
2023/06/04 12:17:03;;;;;;;6.18;1.50;;;;;;;;;;5047517;28;20055;-87
2023/06/04 12:19:32;;;;;;;5.15;1.40;;;;;;;;;;5011484;28;20045;-89
2023/06/04 12:22:10;;;;;;;6.22;1.40;;;;;;;;;;5028263;28;20101;-89
2023/06/04 12:24:48;;;;;;;6.28;1.48;;;;;;;;;;5044472;28;20144;-88
2023/06/04 12:27:15;;;;;;;5.57;1.40;;;;;;;;;;5045282;28;20049;-88
2023/06/04 12:29:41;;;;;;;4.00;1.48;;;;;;;;;;5051996;28;20068;-88
2023/06/04 12:32:15;;;;;;;3.22;1.38;;;;;;;;;;5052341;28;20126;-88
2023/06/04 12:34:41;;;;;;;4.30;1.30;;;;;;;;;;5052630;28;20045;-89
2023/06/04 12:37:08;;;;;;;4.20;1.40;;;;;;;;;;5030231;28;20085;-89
2023/06/04 12:39:37;;;;;;;6.78;1.95;;;;;;;;;;5030711;28;20060;-88
2023/06/04 12:42:04;;;;;;;3.78;1.38;;;;;;;;;;5048688;28;20048;-89
2023/06/04 12:44:31;;;;;;;5.57;1.60;;;;;;;;;;5031412;28;20046;-89
2023/06/04 12:46:57;;;;;;;6.15;1.52;;;;;;;;;;5030445;28;20067;-89
2023/06/04 12:49:23;;;;;;;4.15;1.50;;;;;;;;;;5047483;28;20045;-89
2023/06/04 12:51:49;;;;;;;5.15;1.63;;;;;;;;;;5048833;28;20053;-89
2023/06/04 12:54:15;;;;;;;4.80;1.90;;;;;;;;;;5048280;28;20049;-88
2023/06/04 12:56:41;;;;;;;6.55;1.60;;;;;;;;;;5048409;28;20060;-88
2023/06/04 12:59:08;;;;;;;4.78;1.25;;;;;;;;;;5027769;28;20053;-88
2023/06/04 13:01:34;;;;;;;7.28;1.73;;;;;;;;;;5045879;28;20101;-84
2023/06/04 13:04:00;;;;;;;7.18;2.50;;;;;;;;;;5035474;28;20102;-87
2023/06/04 13:06:26;;;;;;;5.13;1.65;;;;;;;;;;5011601;28;20042;-86
2023/06/04 13:08:52;;;;;;;6.97;1.88;;;;;;;;;;5031330;28;20073;-84
2023/06/04 13:11:19;;;;;;;4.88;1.60;;;;;;;;;;5045587;28;20045;-88
2023/06/04 13:13:47;;;;;;;4.93;1.60;;;;;;;;;;5037434;28;20144;-86
2023/06/04 13:16:14;;;;;;;6.53;1.50;;;;;;;;;;5044825;28;20144;-85
2023/06/04 13:18:40;;;;;;;5.28;1.83;;;;;;;;;;5041526;28;20042;-86
2023/06/04 13:21:06;;;;;;;5.53;1.52;;;;;;;;;;5027874;28;20100;-87
2023/06/04 13:23:32;;;;;;;7.45;1.88;;;;;;;;;;5028052;28;20045;-87
2023/06/04 13:25:58;;;;;;;4.50;1.45;;;;;;;;;;5028970;28;20053;-88
2023/06/04 13:28:24;;;;;;;4.63;1.75;;;;;;;;;;5046142;28;20041;-87
2023/06/04 13:30:50;;;;;;;4.57;1.45;;;;;;;;;;5047199;28;20045;-87
2023/06/04 13:33:18;;;;;;;5.22;1.80;;;;;;;;;;5047119;28;20216;-88
2023/06/04 13:35:45;;;;;;;4.88;1.70;;;;;;;;;;5047485;28;20054;-88
2023/06/04 13:38:14;;;;;;;6.03;1.65;;;;;;;;;;5030152;28;20468;-88
2023/06/04 13:40:40;;;;;;;7.53;1.90;;;;;;;;;;5011088;28;20049;-89
2023/06/04 13:43:08;;;;;;;9.30;1.90;;;;;;;;;;5045654;28;20040;-87
2023/06/04 13:45:34;;;;;;;5.82;1.70;;;;;;;;;;5028425;28;20076;-90
2023/06/04 13:48:06;;;;;;;5.50;1.60;;;;;;;;;;5029757;28;20061;-88
2023/06/04 13:50:33;;;;;;;5.57;1.80;;;;;;;;;;5027739;28;20050;-88
2023/06/04 13:52:59;;;;;;;5.07;1.52;;;;;;;;;;5026972;28;20070;-87
2023/06/04 13:55:25;;;;;;;5.60;1.60;;;;;;;;;;5042912;28;20045;-85
2023/06/04 13:57:51;;;;;;;5.20;1.63;;;;;;;;;;5047057;28;20508;-87
2023/06/04 14:00:17;;;;;;;5.25;1.70;;;;;;;;;;5047238;28;20034;-88
2023/06/04 14:02:45;;;;;;;7.68;1.70;;;;;;;;;;5007196;28;20088;-87
2023/06/04 14:05:15;;;;;;;4.15;1.50;;;;;;;;;;5043749;28;20045;-85
2023/06/04 14:07:44;;;;;;;5.07;1.52;;;;;;;;;;5046175;28;20050;-88
2023/06/04 14:10:13;;;;;;;9.07;2.38;;;;;;;;;;5026853;28;20096;-85
2023/06/04 14:12:40;;;;;;;6.28;2.00;;;;;;;;;;5041549;28;20371;-86
2023/06/04 14:15:10;;;;;;;6.50;1.83;;;;;;;;;;5030422;28;20052;-88
2023/06/04 14:17:44;;;;;;;5.45;1.60;;;;;;;;;;5013587;28;20087;-89
2023/06/04 14:20:10;;;;;;;6.88;1.80;;;;;;;;;;5046050;28;20095;-87
2023/06/04 14:22:37;;;;;;;5.45;1.88;;;;;;;;;;5026459;28;20080;-87
2023/06/04 14:25:07;;;;;;;4.63;1.73;;;;;;;;;;5041897;28;20593;-89
2023/06/04 14:27:34;;;;;;;5.32;2.00;;;;;;;;;;5028358;28;20445;-89
2023/06/04 14:30:00;;;;;;;5.65;1.70;;;;;;;;;;5029606;28;20060;-88
2023/06/04 14:32:26;;;;;;;5.00;1.83;;;;;;;;;;5042576;28;20052;-89
2023/06/04 14:34:52;;;;;;;7.47;1.83;;;;;;;;;;5010609;28;20041;-89
2023/06/04 14:37:20;;;;;;;6.25;1.80;;;;;;;;;;5046386;28;20116;-88
2023/06/04 14:39:47;;;;;;;6.15;1.90;;;;;;;;;;5011277;28;20049;-89
2023/06/04 14:42:13;;;;;;;6.82;1.80;;;;;;;;;;5032841;28;20096;-89
2023/06/04 14:44:39;;;;;;;6.25;2.00;;;;;;;;;;5034084;28;20070;-88
2023/06/04 14:47:05;;;;;;;5.65;2.00;;;;;;;;;;5035567;28;20048;-89
2023/06/04 14:49:32;;;;;;;10.50;2.00;;;;;;;;;;5051274;28;20068;-90
2023/06/04 14:52:00;;;;;;;7.95;1.80;;;;;;;;;;5048667;28;20101;-89
2023/06/04 14:54:26;;;;;;;7.85;2.10;;;;;;;;;;5048140;28;20502;-91
2023/06/04 14:56:52;;;;;;;7.05;2.28;;;;;;;;;;5029282;28;20098;-88
2023/06/04 14:59:18;;;;;;;7.38;1.95;;;;;;;;;;5004965;28;20056;-89
2023/06/04 15:01:46;;;;;;;7.60;2.35;;;;;;;;;;5027805;28;20117;-89
2023/06/04 15:04:15;;;;;;;6.60;1.85;;;;;;;;;;5047670;28;20045;-90